createdAt,value
2017-11-07T00:00:27.932Z,97.83
2017-11-07T00:01:27.921Z,97.55
2017-11-07T00:02:27.908Z,97.26
2017-11-07T00:03:27.894Z,97.26
2017-11-07T00:04:27.879Z,97.88
2017-11-07T00:05:27.882Z,98.02
2017-11-07T00:06:27.862Z,97.69
2017-11-07T00:07:27.844Z,97.92
2017-11-07T00:08:27.827Z,97.64
2017-11-07T00:09:27.821Z,97.92
2017-11-07T00:10:30.364Z,97.55
2017-11-07T00:11:27.794Z,97.92
2017-11-07T00:12:27.779Z,97.07
2017-11-07T00:13:27.774Z,97.83
2017-11-07T00:14:27.755Z,97.83
2017-11-07T00:15:27.749Z,97.83
2017-11-07T00:16:27.735Z,97.64
2017-11-07T00:17:27.722Z,98.30
2017-11-07T00:18:27.711Z,98.25
2017-11-07T00:19:27.701Z,97.83
2017-11-07T00:20:27.686Z,97.88
2017-11-07T00:21:27.674Z,97.74
2017-11-07T00:22:27.661Z,97.50
2017-11-07T00:23:27.645Z,97.55
2017-11-07T00:24:27.627Z,97.64
2017-11-07T00:25:27.619Z,97.74
2017-11-07T00:26:27.611Z,97.21
2017-11-07T00:27:27.599Z,97.17
2017-11-07T00:28:27.584Z,97.07
2017-11-07T00:29:27.576Z,97.21
2017-11-07T00:30:28.373Z,96.92
2017-11-07T00:31:27.550Z,96.73
2017-11-07T00:32:27.546Z,96.92
2017-11-07T00:33:27.535Z,96.92
2017-11-07T00:34:27.515Z,96.83
2017-11-07T00:35:27.500Z,97.12
2017-11-07T00:36:27.490Z,97.31
2017-11-07T00:37:27.483Z,97.31
2017-11-07T00:38:27.465Z,97.31
2017-11-07T00:39:27.451Z,97.50
2017-11-07T00:40:27.442Z,97.40
2017-11-07T00:41:27.429Z,97.50
2017-11-07T00:42:27.413Z,97.31
2017-11-07T00:43:27.405Z,97.31
2017-11-07T00:44:27.404Z,97.21
2017-11-07T00:45:27.379Z,97.21
2017-11-07T00:46:27.378Z,97.40
2017-11-07T00:47:27.350Z,97.50
2017-11-07T00:48:27.341Z,97.40
2017-11-07T00:49:27.327Z,97.59
2017-11-07T00:50:27.306Z,97.31
2017-11-07T00:51:27.312Z,97.59
2017-11-07T00:52:29.878Z,97.69
2017-11-07T00:53:27.272Z,97.97
2017-11-07T00:54:27.880Z,97.97
2017-11-07T00:55:27.255Z,98.07
2017-11-07T00:56:27.236Z,98.16
2017-11-07T00:57:27.226Z,98.07
2017-11-07T00:58:27.210Z,97.97
2017-11-07T00:59:27.202Z,98.16
2017-11-07T01:00:27.198Z,97.50
2017-11-07T01:01:27.174Z,97.40
2017-11-07T01:02:27.163Z,97.97
2017-11-07T01:03:27.148Z,98.44
2017-11-07T01:04:27.134Z,97.97
2017-11-07T01:05:27.126Z,98.35
2017-11-07T01:06:27.109Z,97.88
2017-11-07T01:07:27.092Z,98.73
2017-11-07T01:08:27.084Z,98.63
2017-11-07T01:09:27.080Z,97.88
2017-11-07T01:10:27.055Z,97.88
2017-11-07T01:11:27.047Z,98.63
2017-11-07T01:12:27.035Z,98.25
2017-11-07T01:13:27.024Z,98.16
2017-11-07T01:14:27.887Z,97.78
2017-11-07T01:15:27.889Z,97.59
2017-11-07T01:16:26.983Z,96.92
2017-11-07T01:17:26.971Z,96.64
2017-11-07T01:18:26.964Z,96.92
2017-11-07T01:19:26.943Z,97.21
2017-11-07T01:20:26.929Z,96.83
2017-11-07T01:21:26.918Z,96.64
2017-11-07T01:22:26.906Z,96.92
2017-11-07T01:23:26.897Z,96.92
2017-11-07T01:24:26.883Z,97.07
2017-11-07T01:25:26.874Z,96.92
2017-11-07T01:26:26.856Z,97.07
2017-11-07T01:27:26.848Z,97.64
2017-11-07T01:28:26.836Z,97.07
2017-11-07T01:29:26.835Z,97.45
2017-11-07T01:30:26.813Z,97.55
2017-11-07T01:31:26.796Z,97.64
2017-11-07T01:32:26.789Z,97.64
2017-11-07T01:33:26.796Z,97.74
2017-11-07T01:34:26.768Z,97.26
2017-11-07T01:35:26.748Z,97.45
2017-11-07T01:36:26.737Z,97.64
2017-11-07T01:37:26.722Z,97.74
2017-11-07T01:38:26.718Z,97.55
2017-11-07T01:39:26.704Z,97.55
2017-11-07T01:40:26.689Z,97.45
2017-11-07T01:41:26.678Z,97.07
2017-11-07T01:42:26.666Z,97.26
2017-11-07T01:43:26.662Z,96.78
2017-11-07T01:44:26.644Z,96.41
2017-11-07T01:45:26.634Z,96.97
2017-11-07T01:46:26.625Z,96.69
2017-11-07T01:47:26.609Z,96.12
2017-11-07T01:48:26.608Z,96.12
2017-11-07T01:49:26.587Z,96.78
2017-11-07T01:50:26.575Z,95.98
2017-11-07T01:51:26.557Z,96.55
2017-11-07T01:52:26.551Z,96.74
2017-11-07T01:53:26.529Z,96.64
2017-11-07T01:54:26.526Z,96.83
2017-11-07T01:55:26.517Z,96.55
2017-11-07T01:56:26.503Z,96.93
2017-11-07T01:57:26.494Z,96.93
2017-11-07T01:58:26.482Z,96.74
2017-11-07T01:59:26.464Z,96.74
2017-11-07T02:00:26.455Z,96.45
2017-11-07T02:01:26.441Z,96.64
2017-11-07T02:02:26.432Z,96.74
2017-11-07T02:03:26.418Z,96.74
2017-11-07T02:04:26.408Z,97.02
2017-11-07T02:05:26.393Z,97.02
2017-11-07T02:06:26.386Z,96.55
2017-11-07T02:07:26.376Z,96.64
2017-11-07T02:08:26.359Z,96.83
2017-11-07T02:09:26.354Z,97.02
2017-11-07T02:10:26.351Z,96.74
2017-11-07T02:11:26.328Z,96.83
2017-11-07T02:12:26.331Z,96.93
2017-11-07T02:13:26.310Z,96.83
2017-11-07T02:14:26.298Z,96.36
2017-11-07T02:15:26.281Z,96.83
2017-11-07T02:16:26.275Z,96.83
2017-11-07T02:17:26.263Z,96.45
2017-11-07T02:18:26.252Z,96.64
2017-11-07T02:19:26.235Z,96.74
2017-11-07T02:20:26.224Z,96.55
2017-11-07T02:21:26.222Z,96.55
2017-11-07T02:22:26.202Z,96.55
2017-11-07T02:23:26.194Z,96.36
2017-11-07T02:24:26.184Z,96.17
2017-11-07T02:25:26.173Z,95.79
2017-11-07T02:26:26.160Z,95.98
2017-11-07T02:27:26.150Z,96.08
2017-11-07T02:28:26.132Z,95.51
2017-11-07T02:29:26.128Z,95.31
2017-11-07T02:30:26.115Z,95.41
2017-11-07T02:31:26.103Z,95.60
2017-11-07T02:32:26.089Z,95.51
2017-11-07T02:33:26.080Z,95.79
2017-11-07T02:34:26.059Z,95.41
2017-11-07T02:35:26.064Z,95.22
2017-11-07T02:36:26.044Z,95.89
2017-11-07T02:37:26.031Z,96.26
2017-11-07T02:38:26.023Z,96.26
2017-11-07T02:39:26.014Z,95.79
2017-11-07T02:40:26.001Z,95.89
2017-11-07T02:41:25.993Z,95.79
2017-11-07T02:42:25.984Z,95.98
2017-11-07T02:43:25.970Z,95.98
2017-11-07T02:44:25.957Z,95.60
2017-11-07T02:45:25.947Z,95.98
2017-11-07T02:46:25.949Z,96.08
2017-11-07T02:47:25.918Z,95.98
2017-11-07T02:48:25.907Z,95.70
2017-11-07T02:49:25.912Z,95.89
2017-11-07T02:50:25.886Z,95.79
2017-11-07T02:51:25.877Z,95.79
2017-11-07T02:52:25.862Z,95.98
2017-11-07T02:53:25.852Z,96.08
2017-11-07T02:54:25.843Z,95.60
2017-11-07T02:55:25.844Z,95.98
2017-11-07T02:56:25.823Z,95.51
2017-11-07T02:57:25.811Z,95.60
2017-11-07T02:58:25.793Z,95.51
2017-11-07T02:59:25.787Z,95.41
2017-11-07T03:00:25.776Z,95.41
2017-11-07T03:01:25.762Z,95.22
2017-11-07T03:02:25.755Z,95.03
2017-11-07T03:03:25.738Z,95.03
2017-11-07T03:04:25.729Z,94.93
2017-11-07T03:05:25.716Z,95.03
2017-11-07T03:06:25.708Z,95.03
2017-11-07T03:07:25.696Z,95.22
2017-11-07T03:08:25.682Z,94.84
2017-11-07T03:09:25.664Z,94.93
2017-11-07T03:10:25.661Z,94.56
2017-11-07T03:11:25.650Z,94.65
2017-11-07T03:12:25.641Z,95.03
2017-11-07T03:13:25.629Z,95.31
2017-11-07T03:14:25.618Z,95.31
2017-11-07T03:15:25.598Z,95.31
2017-11-07T03:16:25.603Z,95.12
2017-11-07T03:17:25.580Z,94.74
2017-11-07T03:18:25.574Z,94.46
2017-11-07T03:19:25.555Z,94.46
2017-11-07T03:20:25.544Z,94.46
2017-11-07T03:21:25.547Z,94.65
2017-11-07T03:22:25.523Z,93.80
2017-11-07T03:23:25.514Z,94.46
2017-11-07T03:24:25.501Z,93.99
2017-11-07T03:25:25.489Z,94.08
2017-11-07T03:26:25.476Z,93.70
2017-11-07T03:27:25.468Z,93.51
2017-11-07T03:28:25.455Z,92.66
2017-11-07T03:29:25.443Z,92.66
2017-11-07T03:30:26.433Z,92.37
2017-11-07T03:31:25.423Z,91.42
2017-11-07T03:32:25.411Z,91.52
2017-11-07T03:33:25.399Z,91.71
2017-11-07T03:34:25.391Z,92.28
2017-11-07T03:35:25.374Z,92.71
2017-11-07T03:36:25.366Z,93.23
2017-11-07T03:37:25.354Z,93.18
2017-11-07T03:38:25.344Z,93.08
2017-11-07T03:39:25.328Z,92.80
2017-11-07T03:40:25.327Z,92.90
2017-11-07T03:41:25.308Z,92.61
2017-11-07T03:42:25.300Z,93.65
2017-11-07T03:43:25.285Z,93.27
2017-11-07T03:44:25.286Z,93.46
2017-11-07T03:45:25.265Z,93.65
2017-11-07T03:46:25.255Z,93.37
2017-11-07T03:47:25.240Z,92.99
2017-11-07T03:48:25.227Z,92.80
2017-11-07T03:49:25.214Z,92.90
2017-11-07T03:50:25.206Z,92.90
2017-11-07T03:51:25.191Z,93.46
2017-11-07T03:52:25.180Z,93.27
2017-11-07T03:53:25.163Z,92.99
2017-11-07T03:54:25.935Z,92.04
2017-11-07T03:55:25.149Z,92.14
2017-11-07T03:56:25.134Z,92.42
2017-11-07T03:57:25.124Z,92.33
2017-11-07T03:58:25.111Z,91.85
2017-11-07T03:59:25.102Z,91.85
2017-11-07T04:00:25.091Z,91.66
2017-11-07T04:01:25.082Z,92.33
2017-11-07T04:02:25.068Z,92.14
2017-11-07T04:03:25.050Z,92.52
2017-11-07T04:04:25.041Z,92.33
2017-11-07T04:05:25.030Z,91.66
2017-11-07T04:06:25.019Z,92.23
2017-11-07T04:07:25.000Z,91.85
2017-11-07T04:08:24.996Z,91.85
2017-11-07T04:09:25.943Z,92.23
2017-11-07T04:10:27.944Z,92.14
2017-11-07T04:11:24.965Z,92.23
2017-11-07T04:12:24.955Z,92.04
2017-11-07T04:13:24.939Z,92.61
2017-11-07T04:14:24.928Z,92.99
2017-11-07T04:15:24.913Z,92.99
2017-11-07T04:16:24.903Z,92.71
2017-11-07T04:17:24.889Z,92.90
2017-11-07T04:18:24.869Z,92.52
2017-11-07T04:19:25.442Z,93.46
2017-11-07T04:20:24.856Z,93.37
2017-11-07T04:21:24.845Z,94.13
2017-11-07T04:22:24.833Z,94.13
2017-11-07T04:23:24.822Z,94.89
2017-11-07T04:24:24.808Z,94.89
2017-11-07T04:25:24.802Z,93.84
2017-11-07T04:26:24.795Z,94.23
2017-11-07T04:27:24.778Z,93.75
2017-11-07T04:28:24.762Z,93.56
2017-11-07T04:29:24.754Z,93.37
2017-11-07T04:30:25.444Z,93.27
2017-11-07T04:31:24.727Z,93.27
2017-11-07T04:32:24.717Z,93.84
2017-11-07T04:33:24.702Z,92.71
2017-11-07T04:34:24.690Z,92.90
2017-11-07T04:35:24.676Z,92.23
2017-11-07T04:36:24.668Z,92.23
2017-11-07T04:37:24.655Z,91.75
2017-11-07T04:38:24.647Z,92.14
2017-11-07T04:39:24.640Z,92.04
2017-11-07T04:40:24.623Z,91.85
2017-11-07T04:41:24.612Z,92.52
2017-11-07T04:42:24.600Z,92.04
2017-11-07T04:43:24.587Z,92.33
2017-11-07T04:44:24.580Z,92.33
2017-11-07T04:45:24.567Z,92.14
2017-11-07T04:46:24.555Z,92.33
2017-11-07T04:47:24.540Z,92.14
2017-11-07T04:48:24.526Z,92.14
2017-11-07T04:49:24.518Z,92.23
2017-11-07T04:50:24.507Z,92.52
2017-11-07T04:51:24.492Z,92.14
2017-11-07T04:52:24.481Z,92.23
2017-11-07T04:53:24.470Z,91.94
2017-11-07T04:54:24.458Z,91.28
2017-11-07T04:55:24.448Z,91.85
2017-11-07T04:56:24.451Z,91.66
2017-11-07T04:57:24.426Z,92.42
2017-11-07T04:58:24.412Z,92.33
2017-11-07T04:59:24.396Z,92.61
2017-11-07T05:00:24.389Z,92.61
2017-11-07T05:01:24.380Z,92.71
2017-11-07T05:02:24.955Z,92.42
2017-11-07T05:03:24.378Z,92.23
2017-11-07T05:04:24.342Z,92.61
2017-11-07T05:05:24.331Z,92.80
2017-11-07T05:06:24.316Z,92.99
2017-11-07T05:07:24.307Z,92.99
2017-11-07T05:08:24.298Z,92.99
2017-11-07T05:09:24.282Z,92.99
2017-11-07T05:10:24.274Z,92.61
2017-11-07T05:11:24.265Z,92.61
2017-11-07T05:12:24.247Z,92.61
2017-11-07T05:13:24.232Z,92.52
2017-11-07T05:14:24.223Z,92.71
2017-11-07T05:15:24.209Z,93.08
2017-11-07T05:16:24.962Z,93.18
2017-11-07T05:17:24.191Z,92.90
2017-11-07T05:18:24.182Z,93.65
2017-11-07T05:19:24.172Z,93.56
2017-11-07T05:20:24.155Z,93.65
2017-11-07T05:21:24.144Z,93.37
2017-11-07T05:22:24.135Z,93.08
2017-11-07T05:23:24.120Z,93.37
2017-11-07T05:24:24.102Z,92.90
2017-11-07T05:25:24.102Z,93.08
2017-11-07T05:26:24.085Z,92.99
2017-11-07T05:27:24.069Z,92.99
2017-11-07T05:28:24.055Z,92.85
2017-11-07T05:29:24.965Z,93.70
2017-11-07T05:30:24.036Z,93.41
2017-11-07T05:31:24.026Z,93.80
2017-11-07T05:32:24.013Z,94.27
2017-11-07T05:33:23.992Z,94.56
2017-11-07T05:34:23.985Z,94.93
2017-11-07T05:35:23.973Z,95.12
2017-11-07T05:36:23.966Z,95.60
2017-11-07T05:37:23.951Z,95.98
2017-11-07T05:38:23.939Z,95.69
2017-11-07T05:39:23.924Z,95.74
2017-11-07T05:40:23.915Z,96.08
2017-11-07T05:41:23.906Z,96.73
2017-11-07T05:42:23.900Z,96.45
2017-11-07T05:43:23.879Z,96.17
2017-11-07T05:44:23.867Z,95.79
2017-11-07T05:45:23.854Z,95.79
2017-11-07T05:46:23.846Z,95.88
2017-11-07T05:47:23.829Z,95.31
2017-11-07T05:48:23.821Z,95.41
2017-11-07T05:49:23.806Z,95.79
2017-11-07T05:50:23.793Z,95.12
2017-11-07T05:51:23.789Z,94.93
2017-11-07T05:52:23.778Z,95.22
2017-11-07T05:53:23.762Z,95.31
2017-11-07T05:54:23.751Z,94.93
2017-11-07T05:55:23.734Z,95.17
2017-11-07T05:56:23.723Z,95.22
2017-11-07T05:57:23.707Z,94.42
2017-11-07T05:58:23.703Z,94.46
2017-11-07T05:59:23.681Z,94.70
2017-11-07T06:00:23.671Z,94.60
2017-11-07T06:01:23.655Z,94.42
2017-11-07T06:02:23.653Z,94.51
2017-11-07T06:03:23.636Z,94.89
2017-11-07T06:04:23.620Z,94.70
2017-11-07T06:05:23.608Z,94.51
2017-11-07T06:06:23.594Z,94.51
2017-11-07T06:07:23.587Z,94.42
2017-11-07T06:08:23.577Z,94.98
2017-11-07T06:09:23.562Z,94.32
2017-11-07T06:10:23.555Z,94.60
2017-11-07T06:11:23.531Z,94.42
2017-11-07T06:12:23.520Z,94.51
2017-11-07T06:13:23.514Z,94.51
2017-11-07T06:14:23.502Z,94.51
2017-11-07T06:15:23.485Z,93.94
2017-11-07T06:16:23.472Z,93.08
2017-11-07T06:17:23.466Z,93.56
2017-11-07T06:18:23.448Z,93.56
2017-11-07T06:19:23.437Z,94.13
2017-11-07T06:20:23.423Z,93.46
2017-11-07T06:21:23.420Z,93.84
2017-11-07T06:22:23.393Z,93.27
2017-11-07T06:23:23.377Z,93.84
2017-11-07T06:24:23.371Z,93.46
2017-11-07T06:25:23.990Z,93.56
2017-11-07T06:26:23.350Z,93.65
2017-11-07T06:27:23.333Z,93.84
2017-11-07T06:28:23.323Z,94.51
2017-11-07T06:29:23.304Z,94.23
2017-11-07T06:30:23.309Z,94.98
2017-11-07T06:31:23.277Z,94.89
2017-11-07T06:32:23.298Z,95.45
2017-11-07T06:33:23.259Z,94.93
2017-11-07T06:34:23.242Z,95.22
2017-11-07T06:35:23.234Z,93.89
2017-11-07T06:36:23.222Z,94.08
2017-11-07T06:37:23.205Z,94.18
2017-11-07T06:38:23.192Z,94.27
2017-11-07T06:39:23.184Z,93.89
2017-11-07T06:40:23.170Z,93.32
2017-11-07T06:41:23.154Z,93.32
2017-11-07T06:42:23.141Z,92.57
2017-11-07T06:43:23.130Z,93.23
2017-11-07T06:44:23.117Z,93.13
2017-11-07T06:45:23.107Z,92.57
2017-11-07T06:46:23.093Z,92.80
2017-11-07T06:47:23.085Z,91.90
2017-11-07T06:48:23.077Z,91.66
2017-11-07T06:49:23.057Z,91.14
2017-11-07T06:50:23.056Z,91.24
2017-11-07T06:51:23.031Z,91.09
2017-11-07T06:52:23.022Z,91.05
2017-11-07T06:53:23.011Z,91.09
2017-11-07T06:54:23.019Z,91.38
2017-11-07T06:55:23.493Z,91.42
2017-11-07T06:56:22.966Z,91.66
2017-11-07T06:57:22.957Z,91.56
2017-11-07T06:58:22.957Z,91.28
2017-11-07T06:59:22.934Z,90.90
2017-11-07T07:00:22.922Z,91.09
2017-11-07T07:01:22.910Z,90.71
2017-11-07T07:02:22.897Z,91.09
2017-11-07T07:03:22.886Z,90.43
2017-11-07T07:04:22.880Z,90.14
2017-11-07T07:05:22.865Z,90.24
2017-11-07T07:06:22.853Z,90.62
2017-11-07T07:07:22.860Z,89.86
2017-11-07T07:08:22.869Z,89.86
2017-11-07T07:09:22.814Z,90.62
2017-11-07T07:10:22.805Z,90.62
2017-11-07T07:11:22.796Z,90.05
2017-11-07T07:12:22.771Z,90.33
2017-11-07T07:13:22.785Z,91.00
2017-11-07T07:14:22.759Z,91.09
2017-11-07T07:15:22.746Z,90.71
2017-11-07T07:16:22.737Z,90.52
2017-11-07T07:17:22.720Z,90.14
2017-11-07T07:18:22.740Z,90.05
2017-11-07T07:19:22.710Z,89.95
2017-11-07T07:20:23.535Z,90.05
2017-11-07T07:21:22.666Z,89.76
2017-11-07T07:22:22.660Z,89.86
2017-11-07T07:23:22.646Z,89.58
2017-11-07T07:24:22.640Z,89.76
2017-11-07T07:25:22.644Z,89.86
2017-11-07T07:26:22.626Z,89.67
2017-11-07T07:27:22.629Z,90.05
2017-11-07T07:28:22.612Z,89.86
2017-11-07T07:29:22.576Z,90.14
2017-11-07T07:30:22.579Z,90.43
2017-11-07T07:31:22.553Z,90.62
2017-11-07T07:32:22.546Z,90.52
2017-11-07T07:33:22.529Z,89.95
2017-11-07T07:34:22.534Z,90.14
2017-11-07T07:35:22.498Z,89.39
2017-11-07T07:36:22.488Z,89.76
2017-11-07T07:37:25.021Z,89.86
2017-11-07T07:38:22.478Z,89.20
2017-11-07T07:39:22.470Z,89.20
2017-11-07T07:40:22.472Z,89.67
2017-11-07T07:41:22.450Z,88.81
2017-11-07T07:42:23.004Z,89.58
2017-11-07T07:43:22.416Z,89.86
2017-11-07T07:44:22.402Z,89.39
2017-11-07T07:45:22.398Z,89.48
2017-11-07T07:46:22.378Z,89.76
2017-11-07T07:47:22.385Z,90.05
2017-11-07T07:48:22.414Z,89.76
2017-11-07T07:49:23.017Z,89.67
2017-11-07T07:50:22.332Z,90.05
2017-11-07T07:51:22.319Z,90.05
2017-11-07T07:52:22.316Z,89.67
2017-11-07T07:53:23.072Z,89.67
2017-11-07T07:54:22.287Z,89.20
2017-11-07T07:55:22.277Z,89.39
2017-11-07T07:56:22.259Z,89.39
2017-11-07T07:57:22.274Z,88.81
2017-11-07T07:58:22.234Z,88.34
2017-11-07T07:59:22.227Z,88.67
2017-11-07T08:00:22.236Z,88.76
2017-11-07T08:01:22.214Z,88.67
2017-11-07T08:02:22.203Z,88.67
2017-11-07T08:03:22.179Z,87.91
2017-11-07T08:04:22.167Z,88.67
2017-11-07T08:05:23.013Z,88.29
2017-11-07T08:06:23.015Z,88.86
2017-11-07T08:07:22.133Z,88.76
2017-11-07T08:08:22.131Z,88.67
2017-11-07T08:09:22.113Z,88.67
2017-11-07T08:10:22.105Z,88.39
2017-11-07T08:11:22.098Z,88.48
2017-11-07T08:12:22.077Z,88.10
2017-11-07T08:13:22.073Z,88.10
2017-11-07T08:14:22.060Z,87.82
2017-11-07T08:15:23.036Z,88.01
2017-11-07T08:16:22.051Z,88.20
2017-11-07T08:17:22.076Z,87.34
2017-11-07T08:18:22.094Z,87.62
2017-11-07T08:19:22.007Z,87.91
2017-11-07T08:20:21.993Z,88.20
2017-11-07T08:21:21.979Z,88.01
2017-11-07T08:22:22.512Z,87.91
2017-11-07T08:23:21.960Z,87.53
2017-11-07T08:24:21.945Z,87.62
2017-11-07T08:25:21.936Z,87.24
2017-11-07T08:26:21.927Z,87.34
2017-11-07T08:27:21.914Z,87.43
2017-11-07T08:28:21.896Z,86.96
2017-11-07T08:29:21.894Z,87.15
2017-11-07T08:30:21.882Z,87.15
2017-11-07T08:31:21.868Z,86.77
2017-11-07T08:32:21.860Z,86.49
2017-11-07T08:33:22.519Z,86.58
2017-11-07T08:34:21.843Z,86.77
2017-11-07T08:35:21.820Z,87.15
2017-11-07T08:36:21.814Z,86.68
2017-11-07T08:37:21.801Z,86.96
2017-11-07T08:38:22.071Z,87.15
2017-11-07T08:39:22.537Z,86.68
2017-11-07T08:40:21.777Z,86.87
2017-11-07T08:41:22.524Z,86.68
2017-11-07T08:42:21.757Z,87.15
2017-11-07T08:43:21.736Z,87.24
2017-11-07T08:44:21.728Z,87.72
2017-11-07T08:45:21.706Z,87.43
2017-11-07T08:46:22.526Z,87.24
2017-11-07T08:47:21.693Z,87.91
2017-11-07T08:48:21.700Z,88.01
2017-11-07T08:49:21.669Z,88.10
2017-11-07T08:50:21.657Z,88.10
2017-11-07T08:51:21.649Z,88.29
2017-11-07T08:52:21.636Z,87.62
2017-11-07T08:53:21.628Z,87.72
2017-11-07T08:54:21.626Z,87.62
2017-11-07T08:55:21.617Z,87.34
2017-11-07T08:56:21.604Z,87.24
2017-11-07T08:57:21.593Z,87.15
2017-11-07T08:58:22.534Z,87.53
2017-11-07T08:59:21.573Z,87.53
2017-11-07T09:00:21.551Z,86.87
2017-11-07T09:01:21.541Z,87.34
2017-11-07T09:02:21.533Z,87.53
2017-11-07T09:03:21.518Z,87.24
2017-11-07T09:04:21.501Z,87.43
2017-11-07T09:05:21.496Z,86.96
2017-11-07T09:06:21.484Z,87.15
2017-11-07T09:07:21.471Z,87.24
2017-11-07T09:08:21.462Z,86.77
2017-11-07T09:09:21.446Z,87.15
2017-11-07T09:10:21.440Z,86.68
2017-11-07T09:11:21.428Z,86.68
2017-11-07T09:12:21.424Z,86.58
2017-11-07T09:13:21.411Z,86.58
2017-11-07T09:14:21.400Z,86.20
2017-11-07T09:15:21.388Z,86.11
2017-11-07T09:16:21.392Z,86.30
2017-11-07T09:17:21.366Z,85.91
2017-11-07T09:18:21.360Z,85.91
2017-11-07T09:19:21.344Z,85.86
2017-11-07T09:20:21.332Z,85.91
2017-11-07T09:21:21.320Z,86.01
2017-11-07T09:22:21.310Z,85.25
2017-11-07T09:23:22.058Z,85.53
2017-11-07T09:24:21.291Z,85.72
2017-11-07T09:25:22.041Z,85.68
2017-11-07T09:26:21.273Z,85.63
2017-11-07T09:27:21.256Z,85.68
2017-11-07T09:28:21.247Z,85.68
2017-11-07T09:29:21.237Z,85.11
2017-11-07T09:30:22.039Z,85.01
2017-11-07T09:31:21.221Z,85.39
2017-11-07T09:32:21.207Z,85.11
2017-11-07T09:33:21.197Z,85.20
2017-11-07T09:34:21.185Z,84.82
2017-11-07T09:35:21.181Z,84.82
2017-11-07T09:36:21.172Z,84.06
2017-11-07T09:37:21.160Z,83.87
2017-11-07T09:38:21.140Z,84.25
2017-11-07T09:39:21.138Z,83.68
2017-11-07T09:40:22.041Z,83.39
2017-11-07T09:41:21.118Z,83.11
2017-11-07T09:42:21.106Z,82.92
2017-11-07T09:43:21.096Z,82.45
2017-11-07T09:44:21.086Z,82.64
2017-11-07T09:45:21.073Z,82.82
2017-11-07T09:46:21.057Z,83.49
2017-11-07T09:47:21.042Z,83.39
2017-11-07T09:48:21.546Z,83.68
2017-11-07T09:49:21.031Z,83.49
2017-11-07T09:50:21.021Z,83.11
2017-11-07T09:51:21.015Z,83.30
2017-11-07T09:52:21.005Z,83.30
2017-11-07T09:53:20.996Z,83.01
2017-11-07T09:54:20.983Z,83.25
2017-11-07T09:55:20.974Z,83.25
2017-11-07T09:56:20.965Z,83.53
2017-11-07T09:57:20.954Z,82.96
2017-11-07T09:58:20.944Z,83.44
2017-11-07T09:59:20.926Z,83.34
2017-11-07T10:00:20.926Z,83.15
2017-11-07T10:01:20.910Z,82.68
2017-11-07T10:02:20.909Z,82.35
2017-11-07T10:03:20.914Z,82.68
2017-11-07T10:04:20.882Z,82.96
2017-11-07T10:05:21.564Z,82.20
2017-11-07T10:06:20.861Z,82.73
2017-11-07T10:07:21.572Z,82.82
2017-11-07T10:08:20.841Z,83.49
2017-11-07T10:09:20.841Z,83.01
2017-11-07T10:10:21.558Z,83.11
2017-11-07T10:11:20.806Z,83.97
2017-11-07T10:12:20.809Z,84.16
2017-11-07T10:13:20.840Z,83.59
2017-11-07T10:14:20.783Z,84.16
2017-11-07T10:15:20.772Z,83.39
2017-11-07T10:16:20.763Z,83.49
2017-11-07T10:17:20.840Z,84.25
2017-11-07T10:18:20.747Z,84.34
2017-11-07T10:19:21.558Z,84.16
2017-11-07T10:20:20.732Z,84.63
2017-11-07T10:21:20.712Z,84.44
2017-11-07T10:22:20.715Z,84.91
2017-11-07T10:23:20.687Z,84.25
2017-11-07T10:24:20.675Z,84.25
2017-11-07T10:25:21.565Z,84.34
2017-11-07T10:26:20.666Z,84.44
2017-11-07T10:27:20.654Z,83.87
2017-11-07T10:28:20.645Z,84.34
2017-11-07T10:29:20.636Z,84.63
2017-11-07T10:30:20.623Z,84.82
2017-11-07T10:31:20.611Z,84.25
2017-11-07T10:32:20.601Z,84.34
2017-11-07T10:33:20.591Z,83.78
2017-11-07T10:34:20.589Z,83.20
2017-11-07T10:35:20.565Z,82.92
2017-11-07T10:36:20.560Z,82.73
2017-11-07T10:37:20.553Z,83.49
2017-11-07T10:38:20.540Z,82.73
2017-11-07T10:39:20.526Z,82.73
2017-11-07T10:40:20.519Z,82.64
2017-11-07T10:41:20.505Z,83.30
2017-11-07T10:42:20.501Z,83.44
2017-11-07T10:43:21.064Z,82.96
2017-11-07T10:44:20.480Z,82.87
2017-11-07T10:45:20.466Z,82.10
2017-11-07T10:46:20.457Z,82.20
2017-11-07T10:47:20.447Z,82.01
2017-11-07T10:48:20.439Z,81.82
2017-11-07T10:49:20.427Z,81.63
2017-11-07T10:50:20.422Z,81.63
2017-11-07T10:51:20.411Z,81.73
2017-11-07T10:52:20.396Z,81.44
2017-11-07T10:53:20.393Z,81.54
2017-11-07T10:54:20.376Z,81.63
2017-11-07T10:55:21.072Z,80.96
2017-11-07T10:56:20.354Z,81.35
2017-11-07T10:57:20.345Z,81.16
2017-11-07T10:58:21.070Z,81.54
2017-11-07T10:59:20.332Z,81.16
2017-11-07T11:00:20.316Z,81.16
2017-11-07T11:01:20.305Z,80.21
2017-11-07T11:02:20.295Z,80.68
2017-11-07T11:03:20.289Z,81.35
2017-11-07T11:04:20.282Z,81.25
2017-11-07T11:05:20.266Z,81.44
2017-11-07T11:06:20.264Z,80.87
2017-11-07T11:07:20.249Z,80.49
2017-11-07T11:08:20.238Z,80.21
2017-11-07T11:09:20.254Z,80.44
2017-11-07T11:10:20.226Z,80.15
2017-11-07T11:11:21.078Z,79.96
2017-11-07T11:12:20.198Z,79.77
2017-11-07T11:13:20.192Z,79.96
2017-11-07T11:14:20.181Z,79.30
2017-11-07T11:15:20.164Z,79.68
2017-11-07T11:16:20.160Z,79.96
2017-11-07T11:17:20.154Z,79.30
2017-11-07T11:18:20.141Z,79.30
2017-11-07T11:19:20.139Z,79.20
2017-11-07T11:20:20.141Z,79.30
2017-11-07T11:21:20.115Z,78.44
2017-11-07T11:22:20.106Z,78.25
2017-11-07T11:23:20.097Z,78.63
2017-11-07T11:24:21.084Z,78.53
2017-11-07T11:25:20.071Z,78.91
2017-11-07T11:26:20.074Z,78.34
2017-11-07T11:27:20.577Z,78.53
2017-11-07T11:28:20.048Z,78.72
2017-11-07T11:29:20.588Z,78.82
2017-11-07T11:30:20.041Z,78.82
2017-11-07T11:31:20.035Z,77.77
2017-11-07T11:32:20.013Z,78.53
2017-11-07T11:33:20.024Z,78.82
2017-11-07T11:34:20.583Z,78.34
2017-11-07T11:35:19.984Z,78.53
2017-11-07T11:36:20.589Z,78.44
2017-11-07T11:37:19.972Z,78.53
2017-11-07T11:38:19.967Z,79.01
2017-11-07T11:39:19.959Z,78.72
2017-11-07T11:40:19.942Z,78.25
2017-11-07T11:41:20.605Z,77.97
2017-11-07T11:42:19.922Z,78.16
2017-11-07T11:43:19.902Z,78.53
2017-11-07T11:44:19.905Z,77.97
2017-11-07T11:45:19.893Z,78.72
2017-11-07T11:46:19.890Z,78.72
2017-11-07T11:47:19.872Z,78.82
2017-11-07T11:48:20.589Z,78.82
2017-11-07T11:49:19.863Z,78.25
2017-11-07T11:50:19.855Z,78.53
2017-11-07T11:51:20.591Z,78.53
2017-11-07T11:52:19.837Z,78.06
2017-11-07T11:53:20.592Z,78.44
2017-11-07T11:54:19.819Z,78.72
2017-11-07T11:55:20.596Z,78.53
2017-11-07T11:56:19.798Z,78.63
2017-11-07T11:57:19.794Z,78.82
2017-11-07T11:58:19.783Z,78.44
2017-11-07T11:59:19.765Z,78.82
2017-11-07T12:00:19.767Z,78.72
2017-11-07T12:01:19.749Z,78.16
2017-11-07T12:02:19.739Z,78.91
2017-11-07T12:03:19.730Z,78.63
2017-11-07T12:04:19.722Z,79.30
2017-11-07T12:05:19.717Z,79.39
2017-11-07T12:06:19.706Z,79.11
2017-11-07T12:07:19.701Z,79.01
2017-11-07T12:08:19.687Z,79.58
2017-11-07T12:09:19.681Z,79.01
2017-11-07T12:10:19.671Z,78.72
2017-11-07T12:11:20.602Z,78.25
2017-11-07T12:12:19.657Z,78.44
2017-11-07T12:13:20.608Z,78.44
2017-11-07T12:14:19.642Z,77.87
2017-11-07T12:15:19.624Z,78.06
2017-11-07T12:16:19.615Z,78.06
2017-11-07T12:17:19.604Z,78.19
2017-11-07T12:18:19.594Z,77.81
2017-11-07T12:19:34.101Z,77.43
2017-11-07T12:20:20.102Z,77.72
2017-11-07T12:21:19.576Z,78.00
2017-11-07T12:22:19.560Z,78.00
2017-11-07T12:23:20.126Z,78.19
2017-11-07T12:24:19.547Z,78.38
2017-11-07T12:25:19.538Z,78.86
2017-11-07T12:26:19.519Z,78.57
2017-11-07T12:27:19.523Z,78.19
2017-11-07T12:28:19.508Z,78.19
2017-11-07T12:29:19.502Z,77.72
2017-11-07T12:30:22.108Z,78.16
2017-11-07T12:31:19.484Z,77.97
2017-11-07T12:32:19.472Z,78.53
2017-11-07T12:33:19.461Z,78.72
2017-11-07T12:34:19.455Z,78.63
2017-11-07T12:35:19.446Z,79.49
2017-11-07T12:36:19.435Z,79.01
2017-11-07T12:37:19.428Z,78.91
2017-11-07T12:38:19.420Z,79.30
2017-11-07T12:39:19.408Z,79.20
2017-11-07T12:40:19.398Z,79.11
2017-11-07T12:41:19.388Z,79.58
2017-11-07T12:42:19.385Z,78.72
2017-11-07T12:43:19.371Z,78.67
2017-11-07T12:44:19.361Z,79.14
2017-11-07T12:45:19.354Z,78.77
2017-11-07T12:46:19.345Z,78.77
2017-11-07T12:47:19.337Z,78.67
2017-11-07T12:48:20.114Z,78.19
2017-11-07T12:49:20.115Z,78.48
2017-11-07T12:50:19.311Z,78.77
2017-11-07T12:51:19.300Z,78.48
2017-11-07T12:52:19.293Z,78.57